createdAt,value
2023-05-05T00:01:33.132Z,53.13
2023-05-05T00:04:36.169Z,52.75
2023-05-05T00:07:38.447Z,52.91
2023-05-05T00:10:42.586Z,52.84
2023-05-05T00:13:44.912Z,52.76
2023-05-05T00:16:47.648Z,53.02
2023-05-05T00:19:50.063Z,52.78
2023-05-05T00:22:52.695Z,52.97
2023-05-05T00:25:55.059Z,52.88
2023-05-05T00:28:57.654Z,52.88
2023-05-05T00:32:00.145Z,52.78
2023-05-05T00:35:02.920Z,52.89
2023-05-05T00:38:05.334Z,53.05
2023-05-05T00:41:08.066Z,52.77
2023-05-05T00:44:10.591Z,53.07
2023-05-05T00:47:14.276Z,53.07
2023-05-05T00:50:28.022Z,53.22
2023-05-05T00:53:31.188Z,53.19
2023-05-05T00:56:33.629Z,53.07
2023-05-05T00:59:38.189Z,53.11
2023-05-05T01:02:41.438Z,52.98
2023-05-05T01:06:06.554Z,53.11
2023-05-05T01:09:35.075Z,53.15
2023-05-05T01:13:33.591Z,53.15
2023-05-05T01:16:41.525Z,53.14
2023-05-05T01:20:20.816Z,53.12
2023-05-05T01:24:04.783Z,53.23
2023-05-05T01:27:30.441Z,53.42
2023-05-05T01:30:54.698Z,53.38
2023-05-05T01:34:06.146Z,53.52
2023-05-05T01:37:15.141Z,53.40
2023-05-05T01:40:23.005Z,53.46
2023-05-05T01:43:29.609Z,53.46
2023-05-05T01:46:35.455Z,53.45
2023-05-05T01:49:38.611Z,53.40
2023-05-05T01:52:42.494Z,53.55
2023-05-05T01:55:46.856Z,53.35
2023-05-05T01:58:51.843Z,53.42
2023-05-05T02:01:56.416Z,53.57
2023-05-05T02:05:00.233Z,53.53
2023-05-05T02:08:04.555Z,53.61
2023-05-05T02:11:10.052Z,53.66
2023-05-05T02:14:14.367Z,53.49
2023-05-05T02:17:18.649Z,53.62
2023-05-05T02:20:22.517Z,53.62
2023-05-05T02:23:25.767Z,53.77
2023-05-05T02:26:31.274Z,54.05
2023-05-05T02:29:44.789Z,54.01
2023-05-05T02:33:03.420Z,54.02
2023-05-05T02:36:12.471Z,54.16
2023-05-05T02:39:26.131Z,56.61
2023-05-05T02:42:39.391Z,57.96
2023-05-05T02:45:41.957Z,59.70
2023-05-05T02:48:45.085Z,60.71
2023-05-05T02:51:47.580Z,61.09
2023-05-05T02:54:51.667Z,61.86
2023-05-05T02:58:03.861Z,61.99
2023-05-05T03:01:22.967Z,62.07
2023-05-05T03:04:29.496Z,62.15
2023-05-05T03:07:40.986Z,62.78
2023-05-05T03:10:52.705Z,62.81
2023-05-05T03:14:13.790Z,62.92
2023-05-05T03:17:18.393Z,63.08
2023-05-05T03:20:22.252Z,63.50
2023-05-05T03:23:25.115Z,64.11
2023-05-05T03:26:28.264Z,64.68
2023-05-05T03:29:30.678Z,64.18
2023-05-05T03:32:34.308Z,64.27
2023-05-05T03:35:36.731Z,64.41
2023-05-05T03:38:42.015Z,64.56
2023-05-05T03:41:44.812Z,64.85
2023-05-05T03:44:48.027Z,65.06
2023-05-05T03:47:50.891Z,65.11
2023-05-05T03:50:54.117Z,65.13
2023-05-05T03:53:56.999Z,65.36
2023-05-05T03:57:00.004Z,65.60
2023-05-05T04:00:02.922Z,65.62
2023-05-05T04:03:06.050Z,65.20
2023-05-05T04:06:08.911Z,65.09
2023-05-05T04:09:12.184Z,65.33
2023-05-05T04:12:14.955Z,65.37
2023-05-05T04:15:17.547Z,64.98
2023-05-05T04:18:20.762Z,64.90
2023-05-05T04:21:23.366Z,64.95
2023-05-05T04:24:26.400Z,65.11
2023-05-05T04:27:30.334Z,65.01
2023-05-05T04:30:33.294Z,64.90
2023-05-05T04:33:35.774Z,64.74
2023-05-05T04:36:38.598Z,64.37
2023-05-05T04:39:41.640Z,64.78
2023-05-05T04:42:44.489Z,65.36
2023-05-05T04:45:56.147Z,65.30
2023-05-05T04:48:59.385Z,65.36
2023-05-05T04:52:02.278Z,65.33
2023-05-05T04:55:05.494Z,64.62
2023-05-05T04:58:08.727Z,64.34
2023-05-05T05:01:11.411Z,63.59
2023-05-05T05:04:18.357Z,62.80
2023-05-05T05:07:21.400Z,61.83
2023-05-05T05:10:23.780Z,61.63
2023-05-05T05:13:26.471Z,62.01
2023-05-05T05:16:28.946Z,61.16
2023-05-05T05:19:31.776Z,60.18
2023-05-05T05:22:34.972Z,59.78
2023-05-05T05:25:38.001Z,59.61
2023-05-05T05:28:41.878Z,59.67
2023-05-05T05:31:44.623Z,59.69
2023-05-05T05:34:47.884Z,59.37
2023-05-05T05:37:52.665Z,58.57
2023-05-05T05:40:55.731Z,59.12
2023-05-05T05:43:58.884Z,58.73
2023-05-05T05:47:01.532Z,58.08
2023-05-05T05:50:05.214Z,58.73
2023-05-05T05:53:07.772Z,57.52
2023-05-05T05:56:10.530Z,57.12
2023-05-05T05:59:13.402Z,55.42
2023-05-05T06:02:16.690Z,53.97
2023-05-05T06:05:19.643Z,52.36
2023-05-05T06:08:24.829Z,51.17
2023-05-05T06:11:28.025Z,50.43
2023-05-05T06:14:30.594Z,49.57
2023-05-05T06:17:33.952Z,49.36
2023-05-05T06:20:36.515Z,49.40
2023-05-05T06:23:39.587Z,49.07
2023-05-05T06:26:42.172Z,48.47
2023-05-05T06:29:44.889Z,48.29
2023-05-05T06:32:47.398Z,47.80
2023-05-05T06:35:52.085Z,47.03
2023-05-05T06:38:54.578Z,47.47
2023-05-05T06:41:57.315Z,46.99
2023-05-05T06:44:59.739Z,46.87
2023-05-05T06:48:02.395Z,46.74
2023-05-05T06:51:04.956Z,46.20
2023-05-05T06:54:07.717Z,45.63
2023-05-05T06:57:10.043Z,45.08
2023-05-05T07:00:14.027Z,44.02
2023-05-05T07:03:16.432Z,43.32
2023-05-05T07:06:19.116Z,43.40
2023-05-05T07:09:21.565Z,42.67
2023-05-05T07:12:24.371Z,42.23
2023-05-05T07:15:29.314Z,42.52
2023-05-05T07:18:32.612Z,43.09
2023-05-05T07:21:35.215Z,42.74
2023-05-05T07:24:37.893Z,42.91
2023-05-05T07:27:40.785Z,43.50
2023-05-05T07:30:43.417Z,43.71
2023-05-05T07:33:46.133Z,43.02
2023-05-05T07:36:48.820Z,44.62
2023-05-05T07:39:51.181Z,44.09
2023-05-05T07:42:53.833Z,43.60
2023-05-05T07:45:56.597Z,44.09
2023-05-05T07:48:59.329Z,44.90
2023-05-05T07:52:01.775Z,45.29
2023-05-05T07:55:04.935Z,44.74
2023-05-05T07:58:07.368Z,44.64
2023-05-05T08:01:11.334Z,44.55
2023-05-05T08:04:14.121Z,45.07
2023-05-05T08:07:16.582Z,44.47
2023-05-05T08:10:19.292Z,44.44
2023-05-05T08:13:21.661Z,45.05
2023-05-05T08:16:24.442Z,44.49
2023-05-05T08:19:29.600Z,44.73
2023-05-05T08:22:32.810Z,44.22
2023-05-05T08:25:35.426Z,44.21
2023-05-05T08:28:38.131Z,43.74
2023-05-05T08:31:40.518Z,43.63
2023-05-05T08:34:43.394Z,43.21
2023-05-05T08:37:46.222Z,43.98
2023-05-05T08:40:51.862Z,43.73
2023-05-05T08:43:54.626Z,43.54
2023-05-05T08:46:59.403Z,43.30
2023-05-05T08:50:02.411Z,43.01
2023-05-05T08:53:41.407Z,42.61
2023-05-05T08:56:46.854Z,42.33
2023-05-05T08:59:50.142Z,41.96
2023-05-05T09:02:54.610Z,41.59
2023-05-05T09:05:58.029Z,41.39
2023-05-05T09:09:01.091Z,41.31
2023-05-05T09:12:03.909Z,41.94
2023-05-05T09:15:11.674Z,42.42
2023-05-05T09:18:14.537Z,42.25
2023-05-05T09:21:24.911Z,41.90
2023-05-05T09:24:27.648Z,41.54
2023-05-05T09:27:30.480Z,41.26
2023-05-05T09:30:34.702Z,41.05
2023-05-05T09:33:37.757Z,42.04
2023-05-05T09:36:44.391Z,41.82
2023-05-05T09:39:54.475Z,40.32
2023-05-05T09:43:06.875Z,40.17
2023-05-05T09:46:09.325Z,39.68
2023-05-05T09:49:19.448Z,39.61
2023-05-05T09:52:21.947Z,40.09
2023-05-05T09:55:25.651Z,39.46
2023-05-05T09:58:30.164Z,39.23
2023-05-05T10:01:32.860Z,39.17
2023-05-05T10:04:36.144Z,39.08
2023-05-05T10:07:41.095Z,38.57
2023-05-05T10:10:52.079Z,38.69
2023-05-05T10:13:54.634Z,38.18
2023-05-05T10:17:00.340Z,38.23
2023-05-05T10:20:04.049Z,38.47
2023-05-05T10:23:10.712Z,38.04
2023-05-05T10:26:15.449Z,37.97
2023-05-05T10:29:31.475Z,37.42
2023-05-05T10:36:29.685Z,36.35
2023-05-05T10:39:34.422Z,35.99
2023-05-05T10:42:40.184Z,35.96
2023-05-05T10:45:43.518Z,36.37
2023-05-05T10:49:14.007Z,36.00
2023-05-05T10:52:28.351Z,34.90
2023-05-05T10:55:57.258Z,33.67
2023-05-05T10:59:00.614Z,34.90
2023-05-05T11:02:26.964Z,34.41
2023-05-05T11:05:29.524Z,33.68
2023-05-05T11:08:33.839Z,32.03
2023-05-05T11:12:09.034Z,31.03
2023-05-05T11:15:26.814Z,31.10
2023-05-05T11:18:40.234Z,30.86
2023-05-05T11:22:01.981Z,31.54
2023-05-05T11:25:35.933Z,31.90
2023-05-05T11:29:08.493Z,32.28
2023-05-05T11:32:12.144Z,32.05
2023-05-05T11:35:15.569Z,31.93
2023-05-05T11:38:22.262Z,31.44
2023-05-05T11:41:34.084Z,31.15
2023-05-05T11:44:36.603Z,30.88
2023-05-05T11:47:39.649Z,30.81
2023-05-05T11:50:42.182Z,30.72
2023-05-05T11:53:49.357Z,30.48
2023-05-05T11:56:53.524Z,30.20
2023-05-05T12:00:01.781Z,30.11
2023-05-05T12:03:07.077Z,29.64
2023-05-05T12:06:09.884Z,29.31
2023-05-05T12:09:20.604Z,29.61
2023-05-05T12:12:37.306Z,29.05
2023-05-05T12:15:39.806Z,30.45
2023-05-05T12:18:42.907Z,29.87
2023-05-05T12:21:45.734Z,29.91
2023-05-05T12:25:05.690Z,30.20
2023-05-05T12:28:09.454Z,30.16
2023-05-05T12:31:12.513Z,30.25
2023-05-05T12:34:15.950Z,30.10
2023-05-05T12:37:19.222Z,31.47
2023-05-05T12:40:47.352Z,31.89
2023-05-05T12:43:58.436Z,31.73
2023-05-05T12:47:01.629Z,31.00
2023-05-05T12:50:04.579Z,30.96
2023-05-05T12:53:06.956Z,30.74
2023-05-05T12:56:34.860Z,30.40
2023-05-05T12:59:37.229Z,30.73
2023-05-05T13:02:40.051Z,30.73
2023-05-05T13:05:42.721Z,30.84
2023-05-05T13:08:45.446Z,30.12
2023-05-05T13:11:47.756Z,29.84
2023-05-05T13:14:50.436Z,30.15
2023-05-05T13:18:00.417Z,29.57
2023-05-05T13:21:03.115Z,30.65
2023-05-05T13:24:23.055Z,30.42
2023-05-05T13:27:28.704Z,30.02
2023-05-05T13:30:31.080Z,30.34
2023-05-05T13:33:34.817Z,29.08
2023-05-05T13:36:37.675Z,29.14
2023-05-05T13:39:40.481Z,28.80
2023-05-05T13:42:42.930Z,28.45
2023-05-05T13:45:45.974Z,28.05
2023-05-05T13:48:48.739Z,27.67
2023-05-05T13:51:51.411Z,28.54
2023-05-05T13:54:53.691Z,28.60
2023-05-05T13:57:56.428Z,28.64
2023-05-05T14:00:58.792Z,28.44
2023-05-05T14:04:04.453Z,29.07
2023-05-05T14:07:07.943Z,28.89
2023-05-05T14:10:10.910Z,28.89
2023-05-05T14:13:15.514Z,29.19
2023-05-05T14:16:18.310Z,29.66
2023-05-05T14:19:20.701Z,29.20
2023-05-05T14:22:23.593Z,29.38
2023-05-05T14:25:25.996Z,29.50
2023-05-05T14:28:28.698Z,29.44
2023-05-05T14:31:31.067Z,29.76
2023-05-05T14:34:33.781Z,30.06
2023-05-05T14:37:36.134Z,30.00
2023-05-05T14:40:39.304Z,30.92
2023-05-05T14:43:41.978Z,30.47
2023-05-05T14:46:46.181Z,31.05
2023-05-05T14:49:48.941Z,31.97
2023-05-05T14:52:51.635Z,31.42
2023-05-05T14:55:53.933Z,31.33
2023-05-05T14:58:56.556Z,31.24
2023-05-05T15:01:59.191Z,32.02
2023-05-05T15:05:02.181Z,31.51
2023-05-05T15:08:04.768Z,30.70
2023-05-05T15:11:07.414Z,31.23
2023-05-05T15:14:09.729Z,31.11
2023-05-05T15:17:12.340Z,31.66
2023-05-05T15:20:14.966Z,31.28
2023-05-05T15:23:17.731Z,31.83
2023-05-05T15:26:20.123Z,31.80
2023-05-05T15:29:22.898Z,31.91
2023-05-05T15:32:25.381Z,31.70
2023-05-05T15:35:28.164Z,31.23
2023-05-05T15:38:30.630Z,31.36
2023-05-05T15:41:36.510Z,31.33
2023-05-05T15:44:39.020Z,31.59
2023-05-05T15:47:41.809Z,31.95
2023-05-05T15:50:44.230Z,32.09
2023-05-05T15:53:47.263Z,32.30
2023-05-05T15:56:49.734Z,32.73
2023-05-05T15:59:53.120Z,31.92
2023-05-05T16:02:56.126Z,32.58
2023-05-05T16:05:58.861Z,32.69
2023-05-05T16:09:01.346Z,33.33
2023-05-05T16:12:04.402Z,33.25
2023-05-05T16:15:07.488Z,33.42
2023-05-05T16:18:10.576Z,33.45
2023-05-05T16:21:12.993Z,33.49
2023-05-05T16:24:16.675Z,34.21
2023-05-05T16:27:19.036Z,34.18
2023-05-05T16:30:21.645Z,34.27
2023-05-05T16:33:24.735Z,34.19
2023-05-05T16:36:27.929Z,34.17
2023-05-05T16:39:30.774Z,33.64
2023-05-05T16:42:33.522Z,34.04
2023-05-05T16:45:35.873Z,34.32
2023-05-05T16:48:38.560Z,34.67
2023-05-05T16:51:40.939Z,34.97
2023-05-05T16:54:43.654Z,35.05
2023-05-05T16:57:47.249Z,35.24
2023-05-05T17:00:50.871Z,34.77
2023-05-05T17:03:55.352Z,34.30
2023-05-05T17:06:58.047Z,34.43
2023-05-05T17:10:00.338Z,34.58
2023-05-05T17:13:03.071Z,35.03
2023-05-05T17:16:05.729Z,34.80
2023-05-05T17:19:08.505Z,34.65
2023-05-05T17:22:11.015Z,34.63
2023-05-05T17:25:13.786Z,34.82
2023-05-05T17:28:17.301Z,34.90
2023-05-05T17:31:19.940Z,35.18
2023-05-05T17:34:22.302Z,35.43
2023-05-05T17:37:25.090Z,35.63
2023-05-05T17:40:27.472Z,35.76
2023-05-05T17:43:30.116Z,35.87
2023-05-05T17:46:32.538Z,35.93
2023-05-05T17:49:35.148Z,36.02
2023-05-05T17:52:38.010Z,35.98
2023-05-05T17:55:44.893Z,36.33
2023-05-05T17:58:48.225Z,36.84
2023-05-05T18:01:51.188Z,37.09
2023-05-05T18:04:53.944Z,37.38
2023-05-05T18:07:56.329Z,37.33
2023-05-05T18:10:58.908Z,36.66
2023-05-05T18:14:01.438Z,36.79
2023-05-05T18:17:04.800Z,36.94
2023-05-05T18:20:07.782Z,37.10
2023-05-05T18:23:11.236Z,39.95
2023-05-05T18:26:13.619Z,42.00
2023-05-05T18:29:17.418Z,42.82
2023-05-05T18:32:20.068Z,43.75
2023-05-05T18:35:23.567Z,44.11
2023-05-05T18:38:26.014Z,44.66
2023-05-05T18:41:28.645Z,45.11
2023-05-05T18:44:32.809Z,45.73
2023-05-05T18:47:37.566Z,46.31
2023-05-05T18:50:39.936Z,46.70
2023-05-05T18:53:42.652Z,46.70
2023-05-05T18:56:44.987Z,47.25
2023-05-05T18:59:47.664Z,47.32
2023-05-05T19:02:50.099Z,47.57
2023-05-05T19:05:52.872Z,47.71
2023-05-05T19:08:56.642Z,47.50
2023-05-05T19:11:59.432Z,47.53
2023-05-05T19:15:01.991Z,47.55
2023-05-05T19:18:06.408Z,47.79
2023-05-05T19:21:08.999Z,48.07
2023-05-05T19:24:11.779Z,48.22
2023-05-05T19:27:16.578Z,48.74
2023-05-05T19:30:19.594Z,48.67
2023-05-05T19:33:22.489Z,49.15
2023-05-05T19:36:25.994Z,49.33
2023-05-05T19:39:28.353Z,49.51
2023-05-05T19:42:30.989Z,49.62
2023-05-05T19:45:33.894Z,49.73
2023-05-05T19:48:37.166Z,49.90
2023-05-05T19:51:39.619Z,50.08
2023-05-05T19:54:43.494Z,50.21
2023-05-05T19:57:45.908Z,50.19
2023-05-05T20:00:48.652Z,50.58
2023-05-05T20:03:54.459Z,50.68
2023-05-05T20:06:57.342Z,51.10
2023-05-05T20:10:00.818Z,51.63
2023-05-05T20:13:03.355Z,52.16
2023-05-05T20:16:07.456Z,52.56
2023-05-05T20:19:10.014Z,53.10
2023-05-05T20:22:12.701Z,53.56
2023-05-05T20:25:18.752Z,54.36
2023-05-05T20:28:21.442Z,54.34
2023-05-05T20:31:23.901Z,54.23
2023-05-05T20:34:27.704Z,54.39
2023-05-05T20:37:30.343Z,54.59
2023-05-05T20:40:33.630Z,54.67
2023-05-05T20:43:36.874Z,54.65
2023-05-05T20:46:39.679Z,54.77
2023-05-05T20:49:42.153Z,55.07
2023-05-05T20:52:44.892Z,55.43
2023-05-05T20:55:47.242Z,55.86
2023-05-05T20:58:50.148Z,56.03
2023-05-05T21:01:52.541Z,56.26
2023-05-05T21:04:58.467Z,56.37
2023-05-05T21:08:01.334Z,56.47
2023-05-05T21:11:08.884Z,56.34
2023-05-05T21:14:11.320Z,56.49
2023-05-05T21:17:14.112Z,56.48
2023-05-05T21:20:17.009Z,56.77
2023-05-05T21:23:19.659Z,56.83
2023-05-05T21:26:22.148Z,57.57
2023-05-05T21:29:24.827Z,57.77
2023-05-05T21:32:27.376Z,58.28
2023-05-05T21:35:30.120Z,58.84
2023-05-05T21:38:32.596Z,58.78
2023-05-05T21:41:51.942Z,58.87
2023-05-05T21:45:03.705Z,59.15
2023-05-05T21:48:22.777Z,59.37
2023-05-05T21:51:37.711Z,59.48
2023-05-05T21:54:40.890Z,59.44
2023-05-05T21:57:43.318Z,59.67
2023-05-05T22:00:49.494Z,59.66
2023-05-05T22:03:52.351Z,59.57
2023-05-05T22:06:54.799Z,59.54
2023-05-05T22:09:57.443Z,59.97
2023-05-05T22:12:59.960Z,60.01
2023-05-05T22:16:02.759Z,60.07
2023-05-05T22:19:05.099Z,60.72
2023-05-05T22:22:07.876Z,60.75
2023-05-05T22:25:10.416Z,60.72
2023-05-05T22:28:13.226Z,60.83
2023-05-05T22:31:16.524Z,60.70
2023-05-05T22:34:20.464Z,60.99
2023-05-05T22:37:23.517Z,61.09
2023-05-05T22:40:26.173Z,61.31
2023-05-05T22:43:28.496Z,61.75
2023-05-05T22:46:31.208Z,61.75
2023-05-05T22:49:33.718Z,61.69
2023-05-05T22:52:36.622Z,62.35
2023-05-05T22:55:38.898Z,62.14
2023-05-05T22:58:41.538Z,62.71
2023-05-05T23:01:43.960Z,63.40
2023-05-05T23:04:46.666Z,64.04
2023-05-05T23:07:49.021Z,64.48
2023-05-05T23:10:51.669Z,64.74
2023-05-05T23:13:54.115Z,64.88
2023-05-05T23:16:56.867Z,64.53
2023-05-05T23:19:59.417Z,64.92
2023-05-05T23:23:02.108Z,64.77
2023-05-05T23:26:04.493Z,64.35
2023-05-05T23:29:07.148Z,64.30
2023-05-05T23:32:09.462Z,64.50
2023-05-05T23:35:12.511Z,64.55
2023-05-05T23:38:14.912Z,64.37
2023-05-05T23:41:18.915Z,64.34
2023-05-05T23:44:21.250Z,64.12
2023-05-05T23:47:24.005Z,64.35
2023-05-05T23:50:27.815Z,64.52
2023-05-05T23:53:30.542Z,65.21
2023-05-05T23:56:32.910Z,65.07
2023-05-05T23:59:35.622Z,64.82
